Time;durP1;ratioP1;P1;durP2;ratioP2;P2;SDS_P1;SDS_P2;PMS_P1;PMS_P2;Temp;Humidity;BMP_temperature;BMP_pressure;BME280_temperature;BME280_humidity;BME280_pressure;Samples;Min_cycle;Max_cycle;Signal;HPM_P1;HPM_P2
2022/06/18 00:01:57;;;;;;;4.13;2.70;;;15.70;99.90;;;;;;5111250;28;20047;-77
2022/06/18 00:04:24;;;;;;;3.70;2.65;;;15.60;99.90;;;;;;5112092;28;20044;-77
2022/06/18 00:06:59;;;;;;;;;;;15.50;99.90;;;;;;5111869;28;20039;-77
2022/06/18 00:09:42;;;;;;;6.28;2.83;;;15.50;99.90;;;;;;5111799;28;19924;-77
2022/06/18 00:15:02;;;;;;;4.78;2.58;;;15.50;99.90;;;;;;5109323;28;20032;-75
2022/06/18 00:17:29;;;;;;;2.60;2.40;;;15.50;99.90;;;;;;5111362;28;20122;-77
2022/06/18 00:19:55;;;;;;;4.45;2.50;;;15.50;99.90;;;;;;5111466;28;20031;-77
2022/06/18 00:22:23;;;;;;;6.22;2.80;;;15.50;99.90;;;;;;5111949;28;20050;-77
2022/06/18 00:24:51;;;;;;;3.58;3.20;;;15.50;99.90;;;;;;5110899;28;20040;-78
2022/06/18 00:27:18;;;;;;;3.85;2.88;;;15.50;99.90;;;;;;5111244;28;20067;-77
2022/06/18 00:29:48;;;;;;;4.75;3.40;;;15.50;99.90;;;;;;5110178;28;20043;-77
2022/06/18 00:32:15;;;;;;;6.20;3.58;;;15.50;99.90;;;;;;5111335;28;20487;-77
2022/06/18 00:34:42;;;;;;;4.93;3.90;;;15.30;99.90;;;;;;5103804;28;20056;-77
2022/06/18 00:37:16;;;;;;;3.95;2.67;;;15.30;99.90;;;;;;5111570;28;20051;-75
2022/06/18 00:39:44;;;;;;;4.38;3.08;;;15.40;99.90;;;;;;5111281;28;20051;-76
2022/06/18 00:42:22;;;;;;;3.47;2.88;;;15.40;99.90;;;;;;5109877;28;20401;-76
2022/06/18 00:44:54;;;;;;;4.93;3.17;;;15.30;99.90;;;;;;5084735;28;20044;-77
2022/06/18 00:47:34;;;;;;;3.35;2.88;;;15.30;99.90;;;;;;5112323;28;20119;-77
2022/06/18 00:50:06;;;;;;;5.00;2.90;;;15.20;99.90;;;;;;5110325;28;20484;-80
2022/06/18 00:52:42;;;;;;;5.32;2.78;;;15.30;99.90;;;;;;5107815;28;20032;-78
2022/06/18 00:55:26;;;;;;;5.10;3.17;;;15.30;99.90;;;;;;5072948;28;20048;-77
2022/06/18 00:58:07;;;;;;;7.07;3.03;;;15.10;99.90;;;;;;5083707;22;20040;-76
2022/06/18 01:00:46;;;;;;;4.80;2.80;;;15.10;99.90;;;;;;5069522;28;20036;-77
2022/06/18 01:03:27;;;;;;;4.82;2.58;;;15.00;99.90;;;;;;5051214;28;20041;-77
2022/06/18 01:06:03;;;;;;;3.67;2.65;;;14.90;99.90;;;;;;5034904;28;20514;-77
2022/06/18 01:08:32;;;;;;;5.00;3.30;;;14.90;99.90;;;;;;5066377;28;20546;-77
2022/06/18 01:11:03;;;;;;;3.63;2.75;;;14.90;99.90;;;;;;5054637;28;20055;-77
2022/06/18 01:13:37;;;;;;;3.65;2.95;;;14.90;99.90;;;;;;5053862;28;20551;-77
2022/06/18 01:16:10;;;;;;;3.50;3.20;;;14.90;99.90;;;;;;5044312;28;20144;-77
2022/06/18 01:18:41;;;;;;;5.80;3.55;;;14.90;99.90;;;;;;5054361;28;20305;-77
2022/06/18 01:21:45;;;;;;;9.13;3.53;;;14.90;99.90;;;;;;5056406;28;20051;-79
2022/06/18 01:24:19;;;;;;;3.42;2.90;;;14.90;99.90;;;;;;5053232;28;20041;-77
2022/06/18 01:26:52;;;;;;;3.85;3.10;;;14.90;99.90;;;;;;5068102;28;20044;-78
2022/06/18 01:29:20;;;;;;;3.72;3.25;;;14.90;99.90;;;;;;5085996;22;20475;-74
2022/06/18 01:31:47;;;;;;;5.95;3.15;;;14.90;99.90;;;;;;5074977;28;20048;-75
2022/06/18 01:34:15;;;;;;;4.22;3.40;;;14.90;99.90;;;;;;5081567;28;20067;-75
2022/06/18 01:36:48;;;;;;;4.38;2.97;;;14.80;99.90;;;;;;5096825;28;20063;-75
2022/06/18 01:39:22;;;;;;;6.05;3.88;;;14.80;99.90;;;;;;5079922;28;20098;-74
2022/06/18 01:41:56;;;;;;;9.52;4.85;;;14.80;99.90;;;;;;5076119;28;20139;-75
2022/06/18 01:44:51;;;;;;;9.77;4.18;;;14.70;99.90;;;;;;5076406;28;20448;-74
2022/06/18 01:47:37;;;;;;;7.28;5.32;;;14.70;99.90;;;;;;5075390;28;20089;-75
2022/06/18 01:50:13;;;;;;;8.70;5.38;;;14.60;99.90;;;;;;5055785;28;20044;-74
2022/06/18 01:52:48;;;;;;;7.40;5.45;;;14.60;99.90;;;;;;5056348;28;20044;-74
2022/06/18 01:55:27;;;;;;;7.38;5.38;;;14.60;99.90;;;;;;5063288;28;20527;-74
2022/06/18 01:57:59;;;;;;;7.00;5.90;;;14.60;99.90;;;;;;5093419;28;20036;-74
2022/06/18 02:00:29;;;;;;;7.47;5.63;;;14.60;99.90;;;;;;5075506;28;20044;-74
2022/06/18 02:03:03;;;;;;;6.95;5.18;;;14.50;99.90;;;;;;5075893;28;20131;-74
2022/06/18 02:05:32;;;;;;;7.05;4.60;;;14.50;99.90;;;;;;5075649;28;20072;-74
2022/06/18 02:08:00;;;;;;;7.43;4.50;;;14.50;99.90;;;;;;5075250;28;20042;-72
2022/06/18 02:10:38;;;;;;;7.95;4.80;;;14.50;99.90;;;;;;5093642;28;20047;-74
2022/06/18 02:13:06;;;;;;;7.95;4.65;;;14.60;99.90;;;;;;5075151;28;20119;-76
2022/06/18 02:15:37;;;;;;;6.00;4.20;;;14.70;99.90;;;;;;5093821;28;20032;-76
2022/06/18 02:18:07;;;;;;;6.00;4.07;;;14.70;99.90;;;;;;5075316;28;20067;-75
2022/06/18 02:20:45;;;;;;;7.57;4.97;;;14.70;99.90;;;;;;5075035;28;20051;-76
2022/06/18 02:23:12;;;;;;;7.63;4.50;;;14.60;99.90;;;;;;5075321;28;20412;-75
2022/06/18 02:25:44;;;;;;;12.57;4.53;;;14.70;99.90;;;;;;5075570;28;20044;-76
2022/06/18 02:28:16;;;;;;;6.03;5.10;;;14.70;99.90;;;;;;5093803;28;20040;-76
2022/06/18 02:30:43;;;;;;;4.93;4.38;;;14.70;99.90;;;;;;5091889;28;20036;-77
2022/06/18 02:33:29;;;;;;;;;;;14.70;99.90;;;;;;5075561;28;20089;-76
2022/06/18 02:36:04;;;;;;;4.07;3.42;;;14.60;99.90;;;;;;5075483;28;19973;-77
2022/06/18 02:38:31;;;;;;;7.05;3.88;;;14.60;99.90;;;;;;5092979;28;20043;-76
2022/06/18 02:40:57;;;;;;;;;;;14.40;99.90;;;;;;5075121;28;20473;-76
2022/06/18 02:43:24;;;;;;;5.50;3.47;;;14.20;99.90;;;;;;5075211;28;19943;-76
2022/06/18 02:45:53;;;;;;;7.25;4.10;;;14.10;99.90;;;;;;5075306;28;20405;-77
2022/06/18 02:48:31;;;;;;;5.47;3.85;;;14.00;99.90;;;;;;5074463;28;20075;-76
2022/06/18 02:51:00;;;;;;;4.97;3.77;;;13.90;99.90;;;;;;5074725;28;20129;-76
2022/06/18 02:53:28;;;;;;;5.63;3.65;;;13.80;99.90;;;;;;5075070;28;20044;-77
2022/06/18 02:56:00;;;;;;;6.85;3.33;;;13.80;99.90;;;;;;5093103;28;20471;-76
2022/06/18 02:58:31;;;;;;;7.20;3.53;;;13.70;99.90;;;;;;5074840;28;20048;-77
2022/06/18 03:01:00;;;;;;;6.18;3.45;;;13.60;99.90;;;;;;5074241;28;20542;-76
2022/06/18 03:03:33;;;;;;;4.20;3.28;;;13.60;99.90;;;;;;5093086;28;20055;-76
2022/06/18 03:06:01;;;;;;;5.00;3.13;;;13.60;99.90;;;;;;5074471;28;20135;-76
2022/06/18 03:08:29;;;;;;;6.60;3.55;;;13.50;99.90;;;;;;5074430;28;20041;-77
2022/06/18 03:13:43;;;;;;;4.75;3.60;;;13.60;99.90;;;;;;5072005;28;20056;-76
2022/06/18 03:16:12;;;;;;;5.55;3.55;;;13.60;99.90;;;;;;5092703;28;20044;-76
2022/06/18 03:18:41;;;;;;;6.15;3.97;;;13.60;99.90;;;;;;5074274;28;20127;-76
2022/06/18 03:21:37;;;;;;;11.90;4.10;;;13.60;99.90;;;;;;5090260;28;20119;-77
2022/06/18 03:24:04;;;;;;;4.30;3.65;;;13.60;99.90;;;;;;5084852;28;20036;-76
2022/06/18 03:26:35;;;;;;;8.82;4.18;;;13.60;99.90;;;;;;5074354;28;20089;-77
2022/06/18 03:29:06;;;;;;;6.10;4.38;;;13.50;99.90;;;;;;5073894;28;20044;-77
2022/06/18 03:31:34;;;;;;;9.20;3.88;;;13.60;99.90;;;;;;5091248;28;20040;-77
2022/06/18 03:34:01;;;;;;;5.00;3.72;;;13.60;99.90;;;;;;5066110;28;20135;-76
2022/06/18 03:36:29;;;;;;;5.70;4.05;;;13.50;99.90;;;;;;5074138;28;20134;-76
2022/06/18 03:38:57;;;;;;;5.53;3.58;;;13.50;99.90;;;;;;5073421;28;20047;-76
2022/06/18 03:41:26;;;;;;;6.20;3.90;;;13.50;99.90;;;;;;5073534;28;20044;-77
2022/06/18 03:43:56;;;;;;;9.45;3.90;;;13.50;99.90;;;;;;5074077;28;20044;-76
2022/06/18 03:46:26;;;;;;;4.70;3.55;;;13.50;99.90;;;;;;5074291;28;20444;-76
2022/06/18 03:48:57;;;;;;;5.65;3.88;;;13.50;99.90;;;;;;5067921;28;20047;-76
2022/06/18 03:51:29;;;;;;;5.72;4.15;;;13.50;99.90;;;;;;5073502;28;20463;-76
2022/06/18 03:53:57;;;;;;;7.38;3.72;;;13.50;99.90;;;;;;5073983;28;20044;-76
2022/06/18 03:56:29;;;;;;;5.75;4.20;;;13.40;99.90;;;;;;5073195;28;20048;-76
2022/06/18 03:58:56;;;;;;;5.20;3.88;;;13.40;99.90;;;;;;5073496;28;20535;-77
2022/06/18 04:01:30;;;;;;;5.15;3.90;;;13.50;99.90;;;;;;5073579;28;20519;-77
2022/06/18 04:04:00;;;;;;;6.75;3.83;;;13.50;99.90;;;;;;5073467;28;20048;-76
2022/06/18 04:06:40;;;;;;;8.20;4.45;;;13.60;99.90;;;;;;5073688;28;20650;-77
2022/06/18 04:09:33;;;;;;;4.43;3.30;;;13.70;99.90;;;;;;5073707;28;20044;-77
2022/06/18 04:12:00;;;;;;;;;;;13.80;99.90;;;;;;5073693;28;20564;-77
2022/06/18 04:14:28;;;;;;;3.33;2.75;;;13.90;99.90;;;;;;5073201;28;20341;-77
2022/06/18 04:17:14;;;;;;;7.72;3.50;;;14.00;99.90;;;;;;5067109;28;20056;-77
2022/06/18 04:19:43;;;;;;;5.50;4.07;;;14.40;99.90;;;;;;5073172;28;20051;-76
2022/06/18 04:22:10;;;;;;;;;;;14.10;99.90;;;;;;5073298;28;20044;-76
2022/06/18 04:24:55;;;;;;;5.82;4.53;;;14.20;99.90;;;;;;5073402;28;20023;-76
2022/06/18 04:27:22;;;;;;;6.63;5.00;;;14.30;99.90;;;;;;5073528;28;20048;-76
2022/06/18 04:29:49;;;;;;;8.95;5.35;;;14.40;99.90;;;;;;5071261;28;20517;-74
2022/06/18 04:32:17;;;;;;;9.93;5.60;;;14.50;99.90;;;;;;5069923;28;20044;-76
2022/06/18 04:34:45;;;;;;;9.13;5.50;;;14.50;99.90;;;;;;5064137;28;20041;-76
2022/06/18 04:37:20;;;;;;;7.07;5.28;;;14.60;99.90;;;;;;5064870;28;20143;-77
2022/06/18 04:40:05;;;;;;;6.85;4.70;;;14.70;99.90;;;;;;5067634;28;20072;-77
2022/06/18 04:42:52;;;;;;;6.97;4.90;;;14.70;99.90;;;;;;5075647;28;20093;-77
2022/06/18 04:45:19;;;;;;;6.47;4.93;;;14.70;99.90;;;;;;5074863;28;20516;-76
2022/06/18 04:47:55;;;;;;;7.55;5.03;;;14.70;99.90;;;;;;5075432;28;20044;-77
2022/06/18 04:50:29;;;;;;;10.25;4.95;;;14.80;99.90;;;;;;5077022;28;20539;-76
2022/06/18 04:52:56;;;;;;;7.70;4.95;;;14.80;99.90;;;;;;5074778;28;20063;-75
2022/06/18 04:55:22;;;;;;;7.25;4.82;;;14.80;99.90;;;;;;5067064;28;20047;-74
2022/06/18 04:57:49;;;;;;;7.57;4.70;;;14.80;99.90;;;;;;5077117;28;20044;-75
2022/06/18 05:00:17;;;;;;;;;;;14.80;99.90;;;;;;5076978;28;20052;-76
2022/06/18 05:03:03;;;;;;;4.18;3.33;;;14.80;99.90;;;;;;5095618;28;19927;-76
2022/06/18 05:05:52;;;;;;;5.60;3.85;;;14.70;99.90;;;;;;5095046;28;20458;-75
2022/06/18 05:08:36;;;;;;;5.07;4.07;;;14.80;99.90;;;;;;5076827;28;20082;-75
2022/06/18 05:11:09;;;;;;;6.90;4.20;;;14.80;99.90;;;;;;5077673;28;20098;-75
2022/06/18 05:13:54;;;;;;;7.30;4.22;;;14.80;99.90;;;;;;5090513;28;20079;-75
2022/06/18 05:16:25;;;;;;;5.20;4.18;;;14.90;99.90;;;;;;5073538;28;20492;-75
2022/06/18 05:18:54;;;;;;;16.63;9.77;;;15.00;99.90;;;;;;5061458;28;20133;-76
2022/06/18 05:21:21;;;;;;;5.07;4.45;;;15.10;99.90;;;;;;5056089;28;20522;-75
2022/06/18 05:23:48;;;;;;;10.35;5.13;;;15.20;99.90;;;;;;5069283;28;20041;-74
2022/06/18 05:26:19;;;;;;;5.05;4.55;;;15.20;99.90;;;;;;5061594;28;20516;-74
2022/06/18 05:28:46;;;;;;;11.05;5.78;;;15.30;99.90;;;;;;5056191;28;20052;-74
2022/06/18 05:31:13;;;;;;;10.00;4.57;;;15.40;99.90;;;;;;5073827;28;20550;-75
2022/06/18 05:33:41;;;;;;;7.72;3.97;;;15.60;99.90;;;;;;5073515;28;20052;-75
2022/06/18 05:36:14;;;;;;;5.85;3.72;;;15.90;99.90;;;;;;5075057;28;20036;-75
2022/06/18 05:38:41;;;;;;;5.93;4.47;;;15.90;99.90;;;;;;5072694;28;20048;-75
2022/06/18 05:41:08;;;;;;;6.43;4.43;;;15.90;99.90;;;;;;5074869;28;20040;-76
2022/06/18 05:43:34;;;;;;;4.75;4.18;;;15.90;99.90;;;;;;5075995;28;20036;-75
2022/06/18 05:46:03;;;;;;;8.20;4.40;;;15.90;99.90;;;;;;5076245;28;20040;-74
2022/06/18 05:48:30;;;;;;;5.28;4.28;;;16.00;99.90;;;;;;5072082;28;20489;-76
2022/06/18 05:50:56;;;;;;;5.68;4.43;;;16.10;99.90;;;;;;5071584;28;20416;-75
2022/06/18 05:53:23;;;;;;;6.00;4.55;;;16.20;99.90;;;;;;5074967;28;20044;-74
2022/06/18 05:56:13;;;;;;;7.03;4.32;;;16.50;99.90;;;;;;5075157;28;20072;-75
2022/06/18 05:59:07;;;;;;;5.50;4.38;;;16.30;99.90;;;;;;5084225;28;20101;-74
2022/06/18 06:01:37;;;;;;;7.72;4.05;;;16.40;99.90;;;;;;5075500;28;20048;-75
2022/06/18 06:04:04;;;;;;;7.47;4.00;;;16.50;99.90;;;;;;5075759;28;20051;-75
2022/06/18 06:06:32;;;;;;;6.90;4.47;;;16.60;99.90;;;;;;5069387;28;20500;-75
2022/06/18 06:09:00;;;;;;;8.00;4.28;;;16.70;99.90;;;;;;5067295;28;20093;-76
2022/06/18 06:11:30;;;;;;;5.93;4.07;;;16.70;99.90;;;;;;5075063;28;20067;-75
2022/06/18 06:14:01;;;;;;;6.05;4.03;;;16.80;99.90;;;;;;5075149;28;20093;-74
2022/06/18 06:16:29;;;;;;;6.95;4.55;;;16.90;99.90;;;;;;5075495;28;20044;-75
2022/06/18 06:19:00;;;;;;;6.10;4.20;;;16.90;99.90;;;;;;5075493;28;20044;-75
2022/06/18 06:21:27;;;;;;;5.45;4.38;;;17.00;99.90;;;;;;5093455;28;20443;-75
2022/06/18 06:23:54;;;;;;;7.57;5.05;;;17.00;99.90;;;;;;5086472;28;20040;-74
2022/06/18 06:26:32;;;;;;;5.00;4.15;;;17.10;99.90;;;;;;5093252;28;20040;-75
2022/06/18 06:29:00;;;;;;;5.13;4.25;;;17.10;99.90;;;;;;5093452;28;20050;-75
2022/06/18 06:31:28;;;;;;;5.25;4.38;;;17.20;99.90;;;;;;5092591;28;20028;-75
2022/06/18 06:33:55;;;;;;;7.25;4.50;;;17.30;99.90;;;;;;5093296;28;20064;-75
2022/06/18 06:36:21;;;;;;;7.10;4.53;;;17.50;99.90;;;;;;5093389;28;20051;-75
2022/06/18 06:38:48;;;;;;;8.70;4.95;;;17.60;99.90;;;;;;5092406;28;20062;-75
2022/06/18 06:41:27;;;;;;;7.55;4.32;;;17.80;99.90;;;;;;5092568;28;20047;-74
2022/06/18 06:43:53;;;;;;;6.10;4.47;;;18.00;99.90;;;;;;5093309;28;20048;-75
2022/06/18 06:46:24;;;;;;;5.95;3.92;;;18.10;99.90;;;;;;5093233;28;20131;-74
2022/06/18 06:48:51;;;;;;;6.38;4.80;;;18.30;99.90;;;;;;5092546;28;20028;-75
2022/06/18 06:51:21;;;;;;;7.00;4.03;;;18.50;99.90;;;;;;5092396;28;20488;-75
2022/06/18 06:53:48;;;;;;;6.00;4.30;;;18.60;99.90;;;;;;5092934;28;20040;-75
2022/06/18 06:59:04;;;;;;;4.93;4.40;;;18.90;99.90;;;;;;5085276;28;20051;-75
2022/06/18 07:01:31;;;;;;;7.07;4.40;;;19.00;99.90;;;;;;5092275;28;20412;-75
2022/06/18 07:03:58;;;;;;;5.25;4.22;;;19.10;99.90;;;;;;5092447;28;20425;-75
2022/06/18 07:06:25;;;;;;;4.45;4.05;;;19.20;99.90;;;;;;5086273;28;20048;-75
2022/06/18 07:08:52;;;;;;;7.05;4.40;;;19.40;99.90;;;;;;5085474;28;20385;-75
2022/06/18 07:11:19;;;;;;;5.35;4.25;;;19.60;99.90;;;;;;5082308;28;20042;-75
2022/06/18 07:13:45;;;;;;;5.28;4.03;;;19.80;99.90;;;;;;5082690;28;20055;-75
2022/06/18 07:16:14;;;;;;;6.63;3.95;;;19.90;99.90;;;;;;5086785;28;20040;-76
2022/06/18 07:18:41;;;;;;;6.75;3.92;;;20.00;99.90;;;;;;5083314;28;20464;-77
2022/06/18 07:21:15;;;;;;;7.85;4.30;;;20.20;99.90;;;;;;5082658;28;20133;-76
2022/06/18 07:23:42;;;;;;;4.60;4.05;;;20.20;99.90;;;;;;5084678;28;20051;-77
2022/06/18 07:26:15;;;;;;;4.28;3.88;;;20.30;99.90;;;;;;5092424;28;20052;-75
2022/06/18 07:28:43;;;;;;;4.70;4.00;;;20.40;99.90;;;;;;5091968;28;20489;-74
2022/06/18 07:31:36;;;;;;;5.38;3.95;;;20.50;99.90;;;;;;5091383;28;20066;-75
2022/06/18 07:34:06;;;;;;;4.38;3.92;;;20.60;99.90;;;;;;5081837;28;20052;-75
2022/06/18 07:36:34;;;;;;;5.07;3.90;;;20.70;99.90;;;;;;5091843;28;20491;-74
2022/06/18 07:39:31;;;;;;;4.28;3.88;;;20.80;99.90;;;;;;5083876;22;20045;-75
2022/06/18 07:41:58;;;;;;;4.97;3.88;;;20.90;99.90;;;;;;5073868;28;20059;-76
2022/06/18 07:44:25;;;;;;;5.20;3.83;;;21.20;99.90;;;;;;5087249;28;20043;-75
2022/06/18 07:46:57;;;;;;;4.22;3.83;;;21.20;99.90;;;;;;5083684;28;20041;-77
2022/06/18 07:49:25;;;;;;;4.15;3.75;;;21.40;99.90;;;;;;5072453;28;20162;-76
2022/06/18 07:51:51;;;;;;;6.35;3.80;;;21.30;99.90;;;;;;5053498;28;20049;-73
2022/06/18 07:54:19;;;;;;;5.18;4.03;;;21.50;99.90;;;;;;5071925;28;20094;-75
2022/06/18 07:56:46;;;;;;;4.60;3.85;;;21.60;99.90;;;;;;5071589;28;20049;-76
2022/06/18 07:59:14;;;;;;;4.93;3.67;;;21.70;99.90;;;;;;5071848;28;20055;-77
2022/06/18 08:01:40;;;;;;;5.60;3.97;;;21.90;99.90;;;;;;5071292;28;20036;-76
2022/06/18 08:04:07;;;;;;;4.88;4.30;;;22.00;99.90;;;;;;5071603;28;20051;-78
2022/06/18 08:06:34;;;;;;;4.88;3.78;;;22.10;99.90;;;;;;5063672;28;20056;-77
2022/06/18 08:09:01;;;;;;;4.97;4.03;;;22.30;99.90;;;;;;5071656;28;20378;-75
2022/06/18 08:11:30;;;;;;;4.50;4.10;;;22.30;99.90;;;;;;5071323;28;20679;-74
2022/06/18 08:13:58;;;;;;;4.40;3.97;;;22.30;99.90;;;;;;5071578;28;20501;-74
2022/06/18 08:16:25;;;;;;;5.40;3.75;;;22.60;99.90;;;;;;5070457;28;20041;-76
2022/06/18 08:18:51;;;;;;;;;;;22.70;99.90;;;;;;5071817;28;20419;-77
2022/06/18 08:21:25;;;;;;;3.80;3.50;;;23.00;99.90;;;;;;5086989;28;19995;-75
2022/06/18 08:23:55;;;;;;;4.25;3.85;;;22.80;99.90;;;;;;5071420;28;20140;-78
2022/06/18 08:26:25;;;;;;;3.72;3.30;;;22.90;99.90;;;;;;5071150;28;20386;-75
2022/06/18 08:28:52;;;;;;;7.65;3.42;;;23.10;99.90;;;;;;5071216;28;20044;-75
2022/06/18 08:31:26;;;;;;;4.47;3.67;;;23.30;99.90;;;;;;5071106;28;20127;-78
2022/06/18 08:33:54;;;;;;;6.13;4.00;;;23.30;99.90;;;;;;5066838;28;20513;-78
2022/06/18 08:36:21;;;;;;;4.60;3.67;;;23.20;99.90;;;;;;5071449;28;20436;-74
2022/06/18 08:38:49;;;;;;;4.07;3.67;;;23.30;99.90;;;;;;5071371;28;20492;-77
2022/06/18 08:41:30;;;;;;;5.57;4.03;;;23.40;99.90;;;;;;5070290;28;20052;-76
2022/06/18 08:44:01;;;;;;;5.18;4.00;;;23.70;99.90;;;;;;5071212;28;20048;-78
2022/06/18 08:46:43;;;;;;;4.10;3.70;;;23.50;99.90;;;;;;5071314;28;20052;-76
2022/06/18 08:49:21;;;;;;;5.00;3.90;;;23.60;99.90;;;;;;5071040;28;20048;-77
2022/06/18 08:52:06;;;;;;;4.47;3.65;;;23.80;99.90;;;;;;5070742;28;20049;-77
2022/06/18 08:54:55;;;;;;;5.72;3.10;;;23.90;99.90;;;;;;5070866;28;20036;-77
2022/06/18 08:57:49;;;;;;;4.82;3.78;;;24.20;99.90;;;;;;5071379;28;20052;-78
2022/06/18 09:00:26;;;;;;;7.88;3.78;;;24.30;99.90;;;;;;5070782;28;20047;-78
2022/06/18 09:03:25;;;;;;;6.47;3.30;;;24.50;99.00;;;;;;5071251;28;20053;-78
2022/06/18 09:06:17;;;;;;;3.60;3.30;;;24.70;98.80;;;;;;5071770;28;20049;-78
2022/06/18 09:08:46;;;;;;;5.88;3.75;;;24.90;99.20;;;;;;5070904;28;20051;-77
2022/06/18 09:11:25;;;;;;;7.38;3.75;;;25.10;97.70;;;;;;5071388;28;20036;-78
2022/06/18 09:14:04;;;;;;;4.53;4.07;;;25.10;97.20;;;;;;5071480;28;20059;-77
2022/06/18 09:16:52;;;;;;;5.05;3.55;;;25.00;97.70;;;;;;5071849;28;20059;-78
2022/06/18 09:19:22;;;;;;;8.48;4.80;;;25.20;97.90;;;;;;5070908;28;20041;-76
2022/06/18 09:21:53;;;;;;;5.40;4.38;;;25.20;97.50;;;;;;5071485;28;20048;-77
2022/06/18 09:24:43;;;;;;;5.68;3.70;;;25.30;97.20;;;;;;5072744;28;20044;-78
2022/06/18 09:27:45;;;;;;;4.40;4.00;;;25.50;97.70;;;;;;5067910;28;20405;-80
2022/06/18 09:30:25;;;;;;;3.80;3.50;;;25.70;96.90;;;;;;5067091;28;20057;-78
2022/06/18 09:32:59;;;;;;;3.88;3.58;;;25.70;97.00;;;;;;5075481;28;20047;-79
2022/06/18 09:35:34;;;;;;;4.18;3.80;;;25.80;95.60;;;;;;5069800;28;20037;-78
2022/06/18 09:38:42;;;;;;;3.80;3.47;;;25.60;95.80;;;;;;5075435;28;20040;-79
2022/06/18 09:41:30;;;;;;;3.85;3.50;;;25.90;96.30;;;;;;5074500;28;20080;-79
2022/06/18 09:44:00;;;;;;;;;;;26.00;94.80;;;;;;5077605;28;20076;-79
2022/06/18 09:46:41;;;;;;;5.40;3.70;;;25.80;94.60;;;;;;5056954;28;20289;-79
2022/06/18 09:49:08;;;;;;;3.92;3.10;;;25.70;93.80;;;;;;5056667;28;20505;-77
2022/06/18 09:51:46;;;;;;;4.03;3.72;;;25.80;94.40;;;;;;5055011;28;20092;-78
2022/06/18 09:54:15;;;;;;;5.07;3.75;;;25.90;93.90;;;;;;5064255;28;20045;-79
2022/06/18 09:56:57;;;;;;;4.22;3.83;;;26.10;94.50;;;;;;5074590;28;20044;-78
2022/06/18 09:59:32;;;;;;;4.30;3.53;;;26.10;94.50;;;;;;5076818;28;20060;-78
2022/06/18 10:02:00;;;;;;;6.45;4.32;;;26.30;97.10;;;;;;5076987;28;20044;-78
2022/06/18 10:07:20;;;;;;;4.30;3.90;;;26.20;97.40;;;;;;5071123;28;20049;-78
2022/06/18 10:10:09;;;;;;;5.30;3.42;;;26.10;97.20;;;;;;5076306;28;20131;-78
2022/06/18 10:12:40;;;;;;;5.45;3.70;;;26.20;97.90;;;;;;5079216;28;20043;-78
2022/06/18 10:15:10;;;;;;;5.25;3.83;;;26.20;97.30;;;;;;5077617;28;20052;-78
2022/06/18 10:17:58;;;;;;;4.53;3.80;;;26.30;97.20;;;;;;5075258;28;20045;-78
2022/06/18 10:20:52;;;;;;;5.60;3.72;;;26.50;97.60;;;;;;5078124;28;20508;-78
2022/06/18 10:23:29;;;;;;;4.65;4.15;;;26.60;96.80;;;;;;5071011;28;20059;-78
2022/06/18 10:26:23;;;;;;;4.13;3.50;;;26.70;95.90;;;;;;5075002;28;20048;-77
2022/06/18 10:29:00;;;;;;;4.40;3.80;;;26.80;96.70;;;;;;5072147;28;20050;-77
2022/06/18 10:32:02;;;;;;;5.57;3.97;;;26.90;97.10;;;;;;5070887;28;20040;-78
2022/06/18 10:34:59;;;;;;;4.13;3.72;;;27.00;96.30;;;;;;5054681;28;20045;-78
2022/06/18 10:37:29;;;;;;;5.28;3.60;;;27.00;96.80;;;;;;5057093;28;20039;-78
2022/06/18 10:40:51;;;;;;;4.78;3.97;;;27.10;98.00;;;;;;5066053;28;20040;-77
2022/06/18 10:43:30;;;;;;;5.18;3.85;;;27.40;95.30;;;;;;5072018;28;20061;-78
2022/06/18 10:46:06;;;;;;;4.38;3.80;;;27.50;93.80;;;;;;5074152;28;20041;-78
2022/06/18 10:48:34;;;;;;;4.13;3.72;;;27.50;95.70;;;;;;5073830;28;20062;-78
2022/06/18 10:51:02;;;;;;;5.25;3.65;;;27.40;95.90;;;;;;5076655;28;20493;-80
2022/06/18 10:53:51;;;;;;;6.03;3.95;;;27.60;95.20;;;;;;5075525;28;20059;-79
2022/06/18 10:56:31;;;;;;;6.35;3.72;;;27.70;95.90;;;;;;5073776;28;20041;-79
2022/06/18 10:58:59;;;;;;;4.07;3.20;;;27.70;96.10;;;;;;5065551;28;20041;-78
2022/06/18 11:01:32;;;;;;;4.97;3.35;;;27.80;95.20;;;;;;5055632;28;20040;-78
2022/06/18 11:04:03;;;;;;;3.80;3.50;;;28.00;95.60;;;;;;5073706;28;20055;-78
2022/06/18 11:06:31;;;;;;;4.57;2.90;;;28.00;95.00;;;;;;5077638;28;20071;-79
2022/06/18 11:09:01;;;;;;;5.20;3.45;;;28.20;94.90;;;;;;5077132;28;20048;-80
2022/06/18 11:11:31;;;;;;;4.63;3.15;;;28.30;93.90;;;;;;5074714;28;20048;-80
2022/06/18 11:14:19;;;;;;;6.05;3.33;;;28.30;93.50;;;;;;5072815;28;20489;-81
2022/06/18 11:16:51;;;;;;;6.20;3.30;;;28.30;90.70;;;;;;5072125;28;20044;-79
2022/06/18 11:19:35;;;;;;;3.50;3.20;;;28.40;91.60;;;;;;5077580;28;20049;-80
2022/06/18 11:22:21;;;;;;;2.92;2.65;;;28.50;93.20;;;;;;5074084;28;20063;-80
2022/06/18 11:24:58;;;;;;;3.45;2.67;;;28.60;84.80;;;;;;5072371;28;20052;-80
2022/06/18 11:27:33;;;;;;;2.58;2.40;;;28.70;90.00;;;;;;5056434;28;20048;-81
2022/06/18 11:30:17;;;;;;;3.85;2.35;;;28.70;82.90;;;;;;5074136;28;20052;-81
2022/06/18 11:32:47;;;;;;;2.60;2.40;;;28.80;83.30;;;;;;5076519;28;20040;-80
2022/06/18 11:35:36;;;;;;;2.72;2.22;;;28.90;86.20;;;;;;5074215;28;20047;-81
2022/06/18 11:38:15;;;;;;;3.58;2.08;;;29.10;83.90;;;;;;5071440;28;20059;-81
2022/06/18 11:40:51;;;;;;;3.35;1.88;;;29.30;80.80;;;;;;5070316;28;20491;-80
2022/06/18 11:43:42;;;;;;;1.70;1.40;;;29.40;77.50;;;;;;5072599;28;20048;-81
2022/06/18 11:46:19;;;;;;;1.55;1.45;;;29.40;66.50;;;;;;5072275;28;20067;-82
2022/06/18 11:49:07;;;;;;;1.75;1.65;;;29.30;67.10;;;;;;5071097;28;20047;-80
2022/06/18 11:51:53;;;;;;;1.92;1.38;;;29.40;69.10;;;;;;5071558;28;20051;-80
2022/06/18 11:54:33;;;;;;;1.25;1.00;;;29.60;69.90;;;;;;5073535;28;20078;-81
2022/06/18 11:57:11;;;;;;;1.42;0.90;;;29.60;68.70;;;;;;5074005;28;20049;-80
2022/06/18 11:59:52;;;;;;;1.23;1.13;;;29.80;65.90;;;;;;5071897;28;20044;-79
2022/06/18 12:02:34;;;;;;;3.22;1.40;;;30.00;68.50;;;;;;5066175;28;20524;-80
2022/06/18 12:05:11;;;;;;;0.70;0.70;;;30.20;67.10;;;;;;5071637;28;20048;-81
2022/06/18 12:07:48;;;;;;;2.72;0.90;;;30.30;56.60;;;;;;5071932;28;20051;-80
2022/06/18 12:10:18;;;;;;;1.20;1.10;;;30.30;59.50;;;;;;5071515;28;20049;-80
2022/06/18 12:12:56;;;;;;;0.60;0.60;;;30.50;59.60;;;;;;5053806;28;20044;-80
2022/06/18 12:15:35;;;;;;;0.65;0.65;;;30.60;55.90;;;;;;5071768;28;20048;-82
2022/06/18 12:18:22;;;;;;;2.00;1.15;;;30.50;54.80;;;;;;5071434;28;20040;-80
2022/06/18 12:21:01;;;;;;;1.90;1.00;;;30.50;55.60;;;;;;5071133;28;20053;-79
2022/06/18 12:23:48;;;;;;;0.85;0.80;;;30.60;57.80;;;;;;5071419;28;20274;-81
2022/06/18 12:26:40;;;;;;;1.98;1.05;;;30.60;58.00;;;;;;5071466;28;20063;-79
2022/06/18 12:29:29;;;;;;;1.73;0.88;;;30.80;58.20;;;;;;5052948;28;20443;-80
2022/06/18 12:32:30;;;;;;;3.08;1.13;;;30.80;58.00;;;;;;5061734;28;20095;-81
2022/06/18 12:35:18;;;;;;;1.55;1.30;;;30.90;62.50;;;;;;5071272;28;20045;-81
2022/06/18 12:38:03;;;;;;;;;;;31.10;64.30;;;;;;5071633;28;20044;-81
2022/06/18 12:40:38;;;;;;;1.63;1.25;;;31.20;60.30;;;;;;5070496;28;19924;-81
2022/06/18 12:43:12;;;;;;;3.95;1.23;;;31.20;60.00;;;;;;5033294;28;20374;-82
2022/06/18 12:45:59;;;;;;;1.33;1.23;;;31.30;59.30;;;;;;5054542;28;20036;-81
2022/06/18 12:48:45;;;;;;;1.48;1.38;;;31.40;60.40;;;;;;5068899;28;20133;-79
2022/06/18 12:51:37;;;;;;;1.83;1.13;;;31.50;59.80;;;;;;5058624;28;20036;-78
2022/06/18 12:54:25;;;;;;;1.55;1.45;;;31.30;60.80;;;;;;5064983;28;20457;-79
2022/06/18 12:57:22;;;;;;;2.17;1.50;;;31.20;62.20;;;;;;5068566;28;20032;-76
2022/06/18 13:00:18;;;;;;;1.73;1.20;;;31.40;63.50;;;;;;5061907;28;20037;-80
2022/06/18 13:02:53;;;;;;;3.50;1.60;;;31.30;62.30;;;;;;5071630;28;20048;-79
2022/06/18 13:05:25;;;;;;;1.80;1.45;;;31.40;64.20;;;;;;5075204;28;20044;-79
2022/06/18 13:08:07;;;;;;;1.60;1.50;;;31.50;63.10;;;;;;5075195;28;20040;-77
2022/06/18 13:10:51;;;;;;;2.17;1.75;;;31.40;64.80;;;;;;5074601;28;20064;-78
2022/06/18 13:13:20;;;;;;;3.08;1.50;;;31.40;60.90;;;;;;5057811;28;20045;-79
2022/06/18 13:15:56;;;;;;;2.55;1.70;;;31.60;63.20;;;;;;5054720;28;20048;-79
2022/06/18 13:18:34;;;;;;;3.63;1.85;;;31.70;61.80;;;;;;5055357;28;20108;-78
2022/06/18 13:21:04;;;;;;;3.42;1.52;;;31.60;61.20;;;;;;5052917;28;20050;-78
2022/06/18 13:29:30;;;;;;;5.75;2.10;;;31.80;59.40;;;;;;5071868;28;20036;-79
2022/06/18 13:32:03;;;;;;;2.92;1.73;;;32.10;62.00;;;;;;5073008;28;20127;-78
2022/06/18 13:34:39;;;;;;;3.30;1.63;;;32.20;64.50;;;;;;5073260;28;20047;-79
2022/06/18 13:40:42;;;;;;;2.75;1.55;;;32.30;62.20;;;;;;5029760;28;20043;-72
2022/06/18 13:43:50;;;;;;;4.47;1.80;;;32.40;63.30;;;;;;5033076;28;20049;-73
2022/06/18 13:46:46;;;;;;;4.25;1.80;;;32.40;62.80;;;;;;5032798;28;20099;-73
2022/06/18 13:49:24;;;;;;;4.55;1.65;;;32.40;62.00;;;;;;5031362;28;20060;-72